sensor_id;sensor_type;location;lat;lon;timestamp;P1;durP1;ratioP1;P2;durP2;ratioP2
27223;SDS011;14965;50.660;13.226;2023-11-19T00:01:05;2.88;;;2.42;;
27223;SDS011;14965;50.660;13.226;2023-11-19T00:03:31;3.45;;;2.80;;
27223;SDS011;14965;50.660;13.226;2023-11-19T00:05:57;3.08;;;2.72;;
27223;SDS011;14965;50.660;13.226;2023-11-19T00:08:23;2.95;;;2.63;;
27223;SDS011;14965;50.660;13.226;2023-11-19T00:10:49;3.47;;;2.67;;
27223;SDS011;14965;50.660;13.226;2023-11-19T00:13:14;3.95;;;3.10;;
27223;SDS011;14965;50.660;13.226;2023-11-19T00:15:40;4.32;;;3.08;;
27223;SDS011;14965;50.660;13.226;2023-11-19T00:18:08;6.55;;;3.30;;
27223;SDS011;14965;50.660;13.226;2023-11-19T00:20:34;3.90;;;3.20;;
27223;SDS011;14965;50.660;13.226;2023-11-19T00:23:00;4.32;;;3.30;;
27223;SDS011;14965;50.660;13.226;2023-11-19T00:25:26;3.80;;;3.22;;
27223;SDS011;14965;50.660;13.226;2023-11-19T00:27:52;3.97;;;3.22;;
27223;SDS011;14965;50.660;13.226;2023-11-19T00:30:18;4.43;;;3.30;;
27223;SDS011;14965;50.660;13.226;2023-11-19T00:32:44;4.10;;;3.30;;
27223;SDS011;14965;50.660;13.226;2023-11-19T00:35:11;4.57;;;3.40;;
27223;SDS011;14965;50.660;13.226;2023-11-19T00:37:37;4.20;;;3.30;;
27223;SDS011;14965;50.660;13.226;2023-11-19T00:40:04;4.28;;;3.30;;
27223;SDS011;14965;50.660;13.226;2023-11-19T00:42:31;4.43;;;3.50;;
27223;SDS011;14965;50.660;13.226;2023-11-19T00:44:57;4.00;;;3.25;;
27223;SDS011;14965;50.660;13.226;2023-11-19T00:47:23;4.53;;;3.17;;
27223;SDS011;14965;50.660;13.226;2023-11-19T00:49:49;4.00;;;3.20;;
27223;SDS011;14965;50.660;13.226;2023-11-19T00:52:17;3.75;;;3.20;;
27223;SDS011;14965;50.660;13.226;2023-11-19T00:54:43;5.30;;;3.10;;
27223;SDS011;14965;50.660;13.226;2023-11-19T00:57:09;3.55;;;3.03;;
27223;SDS011;14965;50.660;13.226;2023-11-19T00:59:35;3.33;;;3.00;;
27223;SDS011;14965;50.660;13.226;2023-11-19T01:02:01;4.47;;;3.03;;
27223;SDS011;14965;50.660;13.226;2023-11-19T01:04:28;4.50;;;3.17;;
27223;SDS011;14965;50.660;13.226;2023-11-19T01:06:53;3.35;;;2.70;;
27223;SDS011;14965;50.660;13.226;2023-11-19T01:09:21;3.70;;;2.78;;
27223;SDS011;14965;50.660;13.226;2023-11-19T01:11:47;4.20;;;2.60;;
27223;SDS011;14965;50.660;13.226;2023-11-19T01:14:13;3.00;;;2.60;;
27223;SDS011;14965;50.660;13.226;2023-11-19T01:16:39;3.47;;;2.55;;
27223;SDS011;14965;50.660;13.226;2023-11-19T01:19:04;3.58;;;2.40;;
27223;SDS011;14965;50.660;13.226;2023-11-19T01:21:30;3.78;;;2.80;;
27223;SDS011;14965;50.660;13.226;2023-11-19T01:23:56;3.25;;;2.50;;
27223;SDS011;14965;50.660;13.226;2023-11-19T01:26:24;2.80;;;2.47;;
27223;SDS011;14965;50.660;13.226;2023-11-19T01:28:50;3.22;;;2.40;;
27223;SDS011;14965;50.660;13.226;2023-11-19T01:31:16;3.22;;;2.50;;
27223;SDS011;14965;50.660;13.226;2023-11-19T01:33:42;3.35;;;2.50;;
27223;SDS011;14965;50.660;13.226;2023-11-19T01:36:08;2.45;;;2.15;;
27223;SDS011;14965;50.660;13.226;2023-11-19T01:38:38;2.75;;;2.30;;
27223;SDS011;14965;50.660;13.226;2023-11-19T01:41:04;3.75;;;2.17;;
27223;SDS011;14965;50.660;13.226;2023-11-19T01:43:35;2.88;;;2.30;;
27223;SDS011;14965;50.660;13.226;2023-11-19T01:46:04;1.90;;;1.67;;
27223;SDS011;14965;50.660;13.226;2023-11-19T01:48:31;4.07;;;2.00;;
27223;SDS011;14965;50.660;13.226;2023-11-19T01:50:59;2.77;;;1.70;;
27223;SDS011;14965;50.660;13.226;2023-11-19T01:53:26;2.70;;;1.90;;
27223;SDS011;14965;50.660;13.226;2023-11-19T01:55:53;3.92;;;2.00;;
27223;SDS011;14965;50.660;13.226;2023-11-19T01:58:20;3.33;;;1.77;;
27223;SDS011;14965;50.660;13.226;2023-11-19T02:00:47;1.70;;;1.50;;
27223;SDS011;14965;50.660;13.226;2023-11-19T02:03:14;1.75;;;1.55;;
27223;SDS011;14965;50.660;13.226;2023-11-19T02:05:41;2.83;;;1.63;;
27223;SDS011;14965;50.660;13.226;2023-11-19T02:08:07;2.42;;;1.63;;
27223;SDS011;14965;50.660;13.226;2023-11-19T02:10:34;1.33;;;1.23;;
27223;SDS011;14965;50.660;13.226;2023-11-19T02:13:00;1.83;;;1.20;;
27223;SDS011;14965;50.660;13.226;2023-11-19T02:15:27;1.20;;;0.90;;
27223;SDS011;14965;50.660;13.226;2023-11-19T02:17:54;1.10;;;1.00;;
27223;SDS011;14965;50.660;13.226;2023-11-19T02:20:20;0.88;;;0.80;;
27223;SDS011;14965;50.660;13.226;2023-11-19T02:22:46;1.20;;;1.10;;
27223;SDS011;14965;50.660;13.226;2023-11-19T02:25:15;0.95;;;0.73;;
27223;SDS011;14965;50.660;13.226;2023-11-19T02:27:52;1.23;;;0.70;;
27223;SDS011;14965;50.660;13.226;2023-11-19T02:30:21;1.20;;;0.80;;
27223;SDS011;14965;50.660;13.226;2023-11-19T02:32:47;1.13;;;0.80;;
27223;SDS011;14965;50.660;13.226;2023-11-19T02:35:13;1.17;;;0.82;;
27223;SDS011;14965;50.660;13.226;2023-11-19T02:37:39;0.85;;;0.85;;
27223;SDS011;14965;50.660;13.226;2023-11-19T02:40:06;0.60;;;0.60;;
27223;SDS011;14965;50.660;13.226;2023-11-19T02:42:32;0.60;;;0.60;;
27223;SDS011;14965;50.660;13.226;2023-11-19T02:45:00;0.80;;;0.80;;
27223;SDS011;14965;50.660;13.226;2023-11-19T02:47:26;1.00;;;0.75;;
27223;SDS011;14965;50.660;13.226;2023-11-19T02:49:52;1.80;;;0.80;;
27223;SDS011;14965;50.660;13.226;2023-11-19T02:52:18;0.85;;;0.73;;
27223;SDS011;14965;50.660;13.226;2023-11-19T02:54:44;0.70;;;0.70;;
27223;SDS011;14965;50.660;13.226;2023-11-19T02:57:10;1.05;;;0.82;;
27223;SDS011;14965;50.660;13.226;2023-11-19T02:59:38;0.85;;;0.85;;
27223;SDS011;14965;50.660;13.226;2023-11-19T03:04:32;1.63;;;1.00;;
27223;SDS011;14965;50.660;13.226;2023-11-19T03:06:58;1.13;;;1.00;;
27223;SDS011;14965;50.660;13.226;2023-11-19T03:09:24;1.10;;;1.00;;
27223;SDS011;14965;50.660;13.226;2023-11-19T03:11:50;1.38;;;0.90;;
27223;SDS011;14965;50.660;13.226;2023-11-19T03:14:16;1.00;;;0.82;;
27223;SDS011;14965;50.660;13.226;2023-11-19T03:16:44;1.10;;;1.00;;
27223;SDS011;14965;50.660;13.226;2023-11-19T03:19:12;1.20;;;1.10;;
27223;SDS011;14965;50.660;13.226;2023-11-19T03:21:38;1.23;;;1.13;;
27223;SDS011;14965;50.660;13.226;2023-11-19T03:24:04;1.15;;;1.05;;
27223;SDS011;14965;50.660;13.226;2023-11-19T03:26:31;1.80;;;1.40;;
27223;SDS011;14965;50.660;13.226;2023-11-19T03:28:57;1.13;;;1.02;;
27223;SDS011;14965;50.660;13.226;2023-11-19T03:31:23;3.65;;;1.00;;
27223;SDS011;14965;50.660;13.226;2023-11-19T03:33:49;1.08;;;0.90;;
27223;SDS011;14965;50.660;13.226;2023-11-19T03:36:16;5.65;;;0.90;;
27223;SDS011;14965;50.660;13.226;2023-11-19T03:38:43;0.57;;;0.52;;
27223;SDS011;14965;50.660;13.226;2023-11-19T03:41:11;1.00;;;0.82;;
27223;SDS011;14965;50.660;13.226;2023-11-19T03:43:38;0.90;;;0.73;;
27223;SDS011;14965;50.660;13.226;2023-11-19T03:46:04;1.10;;;0.80;;
27223;SDS011;14965;50.660;13.226;2023-11-19T03:48:40;0.65;;;0.65;;
27223;SDS011;14965;50.660;13.226;2023-11-19T03:51:06;0.60;;;0.60;;
27223;SDS011;14965;50.660;13.226;2023-11-19T03:53:33;0.85;;;0.80;;
27223;SDS011;14965;50.660;13.226;2023-11-19T03:55:59;1.25;;;0.95;;
27223;SDS011;14965;50.660;13.226;2023-11-19T03:58:25;0.88;;;0.80;;
27223;SDS011;14965;50.660;13.226;2023-11-19T04:00:51;0.70;;;0.70;;
27223;SDS011;14965;50.660;13.226;2023-11-19T04:03:17;0.80;;;0.70;;
27223;SDS011;14965;50.660;13.226;2023-11-19T04:05:43;1.25;;;0.52;;
27223;SDS011;14965;50.660;13.226;2023-11-19T04:08:09;0.80;;;0.70;;
27223;SDS011;14965;50.660;13.226;2023-11-19T04:10:36;0.73;;;0.73;;
27223;SDS011;14965;50.660;13.226;2023-11-19T04:13:02;0.77;;;0.68;;
27223;SDS011;14965;50.660;13.226;2023-11-19T04:15:28;0.73;;;0.60;;
27223;SDS011;14965;50.660;13.226;2023-11-19T04:17:54;1.17;;;0.82;;
27223;SDS011;14965;50.660;13.226;2023-11-19T04:20:20;0.52;;;0.50;;
27223;SDS011;14965;50.660;13.226;2023-11-19T04:22:46;1.15;;;0.55;;
27223;SDS011;14965;50.660;13.226;2023-11-19T04:25:11;0.70;;;0.70;;
27223;SDS011;14965;50.660;13.226;2023-11-19T04:27:39;1.25;;;0.93;;
27223;SDS011;14965;50.660;13.226;2023-11-19T04:30:05;0.80;;;0.80;;
27223;SDS011;14965;50.660;13.226;2023-11-19T04:32:32;1.15;;;0.70;;
27223;SDS011;14965;50.660;13.226;2023-11-19T04:34:58;2.05;;;0.75;;
27223;SDS011;14965;50.660;13.226;2023-11-19T04:37:24;0.80;;;0.70;;
27223;SDS011;14965;50.660;13.226;2023-11-19T04:39:50;1.77;;;0.57;;
27223;SDS011;14965;50.660;13.226;2023-11-19T04:42:16;0.77;;;0.65;;
27223;SDS011;14965;50.660;13.226;2023-11-19T04:44:44;0.57;;;0.57;;
27223;SDS011;14965;50.660;13.226;2023-11-19T04:47:09;1.23;;;0.85;;
27223;SDS011;14965;50.660;13.226;2023-11-19T04:49:36;1.48;;;0.75;;
27223;SDS011;14965;50.660;13.226;2023-11-19T04:52:06;2.25;;;0.70;;
27223;SDS011;14965;50.660;13.226;2023-11-19T04:54:32;1.52;;;0.70;;
27223;SDS011;14965;50.660;13.226;2023-11-19T04:56:58;1.63;;;0.60;;
27223;SDS011;14965;50.660;13.226;2023-11-19T04:59:24;1.23;;;0.70;;
27223;SDS011;14965;50.660;13.226;2023-11-19T05:01:51;0.70;;;0.70;;
27223;SDS011;14965;50.660;13.226;2023-11-19T05:04:17;0.70;;;0.65;;
27223;SDS011;14965;50.660;13.226;2023-11-19T05:06:43;0.93;;;0.55;;
27223;SDS011;14965;50.660;13.226;2023-11-19T05:09:09;1.00;;;0.90;;
27223;SDS011;14965;50.660;13.226;2023-11-19T05:11:35;2.30;;;0.80;;
27223;SDS011;14965;50.660;13.226;2023-11-19T05:14:02;0.70;;;0.60;;
27223;SDS011;14965;50.660;13.226;2023-11-19T05:16:28;5.45;;;0.90;;
27223;SDS011;14965;50.660;13.226;2023-11-19T05:18:55;1.10;;;0.75;;
27223;SDS011;14965;50.660;13.226;2023-11-19T05:21:22;1.73;;;0.80;;
27223;SDS011;14965;50.660;13.226;2023-11-19T05:23:48;0.68;;;0.68;;
27223;SDS011;14965;50.660;13.226;2023-11-19T05:26:17;2.38;;;0.60;;
27223;SDS011;14965;50.660;13.226;2023-11-19T05:28:44;0.65;;;0.50;;
27223;SDS011;14965;50.660;13.226;2023-11-19T05:31:10;0.90;;;0.50;;
27223;SDS011;14965;50.660;13.226;2023-11-19T05:33:36;0.38;;;0.38;;
27223;SDS011;14965;50.660;13.226;2023-11-19T05:36:04;0.50;;;0.50;;
27223;SDS011;14965;50.660;13.226;2023-11-19T05:38:31;1.30;;;0.45;;
27223;SDS011;14965;50.660;13.226;2023-11-19T05:40:57;0.70;;;0.60;;
27223;SDS011;14965;50.660;13.226;2023-11-19T05:43:23;0.40;;;0.40;;
27223;SDS011;14965;50.660;13.226;2023-11-19T05:45:49;0.50;;;0.50;;
27223;SDS011;14965;50.660;13.226;2023-11-19T05:48:15;0.60;;;0.60;;
27223;SDS011;14965;50.660;13.226;2023-11-19T05:50:41;1.10;;;0.57;;
27223;SDS011;14965;50.660;13.226;2023-11-19T05:53:08;1.95;;;0.70;;
27223;SDS011;14965;50.660;13.226;2023-11-19T05:55:34;2.17;;;0.63;;
27223;SDS011;14965;50.660;13.226;2023-11-19T05:58:00;1.55;;;0.57;;
27223;SDS011;14965;50.660;13.226;2023-11-19T06:00:26;1.15;;;0.80;;
27223;SDS011;14965;50.660;13.226;2023-11-19T06:02:52;0.45;;;0.43;;
27223;SDS011;14965;50.660;13.226;2023-11-19T06:05:18;1.05;;;0.50;;
27223;SDS011;14965;50.660;13.226;2023-11-19T06:07:44;1.73;;;0.70;;
27223;SDS011;14965;50.660;13.226;2023-11-19T06:10:11;0.85;;;0.60;;
27223;SDS011;14965;50.660;13.226;2023-11-19T06:12:37;1.13;;;0.60;;
27223;SDS011;14965;50.660;13.226;2023-11-19T06:15:04;2.13;;;0.57;;
27223;SDS011;14965;50.660;13.226;2023-11-19T06:17:31;0.55;;;0.50;;
27223;SDS011;14965;50.660;13.226;2023-11-19T06:19:57;1.75;;;0.70;;
27223;SDS011;14965;50.660;13.226;2023-11-19T06:22:23;0.88;;;0.60;;
27223;SDS011;14965;50.660;13.226;2023-11-19T06:24:49;4.88;;;1.08;;
27223;SDS011;14965;50.660;13.226;2023-11-19T06:27:16;0.60;;;0.50;;
27223;SDS011;14965;50.660;13.226;2023-11-19T06:29:42;2.60;;;0.80;;
27223;SDS011;14965;50.660;13.226;2023-11-19T06:32:08;1.10;;;0.60;;
27223;SDS011;14965;50.660;13.226;2023-11-19T06:34:34;1.58;;;1.20;;
27223;SDS011;14965;50.660;13.226;2023-11-19T06:37:00;2.33;;;1.50;;
27223;SDS011;14965;50.660;13.226;2023-11-19T06:39:26;1.08;;;0.80;;
27223;SDS011;14965;50.660;13.226;2023-11-19T06:41:52;1.23;;;0.80;;
27223;SDS011;14965;50.660;13.226;2023-11-19T06:44:19;0.70;;;0.70;;
27223;SDS011;14965;50.660;13.226;2023-11-19T06:46:45;0.65;;;0.50;;
27223;SDS011;14965;50.660;13.226;2023-11-19T06:49:11;4.57;;;1.40;;
27223;SDS011;14965;50.660;13.226;2023-11-19T06:51:41;1.05;;;0.93;;
27223;SDS011;14965;50.660;13.226;2023-11-19T06:54:07;1.33;;;0.40;;
27223;SDS011;14965;50.660;13.226;2023-11-19T06:56:33;1.85;;;0.60;;
27223;SDS011;14965;50.660;13.226;2023-11-19T06:58:59;0.63;;;0.50;;
27223;SDS011;14965;50.660;13.226;2023-11-19T07:01:26;1.27;;;0.45;;
27223;SDS011;14965;50.660;13.226;2023-11-19T07:03:52;2.35;;;1.70;;
27223;SDS011;14965;50.660;13.226;2023-11-19T07:06:18;1.15;;;0.70;;
27223;SDS011;14965;50.660;13.226;2023-11-19T07:08:44;0.90;;;0.88;;
27223;SDS011;14965;50.660;13.226;2023-11-19T07:11:10;1.35;;;0.75;;
27223;SDS011;14965;50.660;13.226;2023-11-19T07:13:36;0.70;;;0.70;;
27223;SDS011;14965;50.660;13.226;2023-11-19T07:16:02;1.23;;;0.98;;
27223;SDS011;14965;50.660;13.226;2023-11-19T07:18:31;0.90;;;0.80;;
27223;SDS011;14965;50.660;13.226;2023-11-19T07:20:56;0.80;;;0.63;;
27223;SDS011;14965;50.660;13.226;2023-11-19T07:23:23;0.55;;;0.50;;
27223;SDS011;14965;50.660;13.226;2023-11-19T07:25:48;1.33;;;0.60;;
27223;SDS011;14965;50.660;13.226;2023-11-19T07:28:14;0.77;;;0.70;;
27223;SDS011;14965;50.660;13.226;2023-11-19T07:30:40;1.02;;;0.50;;
27223;SDS011;14965;50.660;13.226;2023-11-19T07:33:06;0.52;;;0.45;;
27223;SDS011;14965;50.660;13.226;2023-11-19T07:35:34;1.70;;;0.60;;
27223;SDS011;14965;50.660;13.226;2023-11-19T07:38:00;0.85;;;0.60;;
27223;SDS011;14965;50.660;13.226;2023-11-19T07:40:26;0.73;;;0.73;;
27223;SDS011;14965;50.660;13.226;2023-11-19T07:42:52;0.98;;;0.88;;
27223;SDS011;14965;50.660;13.226;2023-11-19T07:45:18;1.73;;;1.20;;
27223;SDS011;14965;50.660;13.226;2023-11-19T07:47:44;1.80;;;1.08;;
27223;SDS011;14965;50.660;13.226;2023-11-19T07:50:10;1.05;;;0.90;;
27223;SDS011;14965;50.660;13.226;2023-11-19T07:52:38;3.20;;;1.17;;
27223;SDS011;14965;50.660;13.226;2023-11-19T07:55:04;4.28;;;1.10;;
27223;SDS011;14965;50.660;13.226;2023-11-19T07:57:31;1.77;;;1.10;;
27223;SDS011;14965;50.660;13.226;2023-11-19T07:59:57;1.63;;;1.10;;
27223;SDS011;14965;50.660;13.226;2023-11-19T08:02:23;2.45;;;1.00;;
27223;SDS011;14965;50.660;13.226;2023-11-19T08:04:49;1.92;;;1.00;;
27223;SDS011;14965;50.660;13.226;2023-11-19T08:07:15;3.53;;;0.90;;
27223;SDS011;14965;50.660;13.226;2023-11-19T08:09:43;4.45;;;1.05;;
27223;SDS011;14965;50.660;13.226;2023-11-19T08:12:09;1.98;;;1.20;;
27223;SDS011;14965;50.660;13.226;2023-11-19T08:14:35;1.95;;;1.10;;
27223;SDS011;14965;50.660;13.226;2023-11-19T08:17:01;3.80;;;1.25;;
27223;SDS011;14965;50.660;13.226;2023-11-19T08:19:28;1.33;;;1.10;;
27223;SDS011;14965;50.660;13.226;2023-11-19T08:21:54;2.22;;;1.10;;
27223;SDS011;14965;50.660;13.226;2023-11-19T08:24:20;5.15;;;1.42;;
27223;SDS011;14965;50.660;13.226;2023-11-19T08:26:47;2.50;;;1.10;;
27223;SDS011;14965;50.660;13.226;2023-11-19T08:29:13;1.95;;;1.10;;
27223;SDS011;14965;50.660;13.226;2023-11-19T08:31:40;2.00;;;1.13;;
27223;SDS011;14965;50.660;13.226;2023-11-19T08:34:06;4.63;;;1.25;;
27223;SDS011;14965;50.660;13.226;2023-11-19T08:36:32;7.82;;;1.67;;
27223;SDS011;14965;50.660;13.226;2023-11-19T08:38:58;6.60;;;1.60;;
27223;SDS011;14965;50.660;13.226;2023-11-19T08:41:24;3.45;;;1.40;;
27223;SDS011;14965;50.660;13.226;2023-11-19T08:43:51;3.72;;;1.20;;
27223;SDS011;14965;50.660;13.226;2023-11-19T08:46:17;5.60;;;1.40;;
27223;SDS011;14965;50.660;13.226;2023-11-19T08:48:43;3.28;;;1.30;;
27223;SDS011;14965;50.660;13.226;2023-11-19T08:51:09;4.68;;;1.70;;
27223;SDS011;14965;50.660;13.226;2023-11-19T08:53:35;3.65;;;1.98;;
27223;SDS011;14965;50.660;13.226;2023-11-19T08:56:01;9.27;;;4.32;;
27223;SDS011;14965;50.660;13.226;2023-11-19T08:58:28;7.03;;;3.75;;
27223;SDS011;14965;50.660;13.226;2023-11-19T09:00:55;10.10;;;4.38;;
27223;SDS011;14965;50.660;13.226;2023-11-19T09:03:21;7.03;;;3.80;;
27223;SDS011;14965;50.660;13.226;2023-11-19T09:05:47;16.35;;;7.88;;
27223;SDS011;14965;50.660;13.226;2023-11-19T09:08:13;7.30;;;2.90;;
27223;SDS011;14965;50.660;13.226;2023-11-19T09:10:39;9.52;;;2.92;;
27223;SDS011;14965;50.660;13.226;2023-11-19T09:13:05;6.97;;;2.25;;
27223;SDS011;14965;50.660;13.226;2023-11-19T09:15:31;6.50;;;3.50;;
27223;SDS011;14965;50.660;13.226;2023-11-19T09:17:58;8.95;;;4.32;;
27223;SDS011;14965;50.660;13.226;2023-11-19T09:20:24;9.07;;;3.30;;
27223;SDS011;14965;50.660;13.226;2023-11-19T09:22:50;7.40;;;3.05;;
27223;SDS011;14965;50.660;13.226;2023-11-19T09:25:16;8.02;;;2.30;;
27223;SDS011;14965;50.660;13.226;2023-11-19T09:27:42;6.90;;;1.90;;
27223;SDS011;14965;50.660;13.226;2023-11-19T09:30:08;6.40;;;1.80;;
27223;SDS011;14965;50.660;13.226;2023-11-19T09:32:35;5.60;;;1.77;;
27223;SDS011;14965;50.660;13.226;2023-11-19T09:35:03;7.22;;;2.63;;
27223;SDS011;14965;50.660;13.226;2023-11-19T09:37:30;4.47;;;1.50;;
27223;SDS011;14965;50.660;13.226;2023-11-19T09:39:56;4.65;;;1.65;;
27223;SDS011;14965;50.660;13.226;2023-11-19T09:42:23;3.40;;;1.60;;
27223;SDS011;14965;50.660;13.226;2023-11-19T09:44:49;6.50;;;1.73;;
27223;SDS011;14965;50.660;13.226;2023-11-19T09:47:17;6.30;;;1.92;;
27223;SDS011;14965;50.660;13.226;2023-11-19T09:49:44;5.57;;;1.75;;
27223;SDS011;14965;50.660;13.226;2023-11-19T09:52:11;4.25;;;1.52;;
27223;SDS011;14965;50.660;13.226;2023-11-19T09:54:37;4.53;;;1.75;;
27223;SDS011;14965;50.660;13.226;2023-11-19T09:57:03;6.35;;;1.80;;
27223;SDS011;14965;50.660;13.226;2023-11-19T09:59:32;6.17;;;1.70;;
27223;SDS011;14965;50.660;13.226;2023-11-19T10:01:58;5.88;;;1.63;;
27223;SDS011;14965;50.660;13.226;2023-11-19T10:04:25;6.18;;;2.10;;
27223;SDS011;14965;50.660;13.226;2023-11-19T10:06:55;5.03;;;1.80;;
27223;SDS011;14965;50.660;13.226;2023-11-19T10:09:22;4.22;;;1.80;;
27223;SDS011;14965;50.660;13.226;2023-11-19T10:11:48;3.40;;;1.80;;
27223;SDS011;14965;50.660;13.226;2023-11-19T10:14:15;4.78;;;3.10;;
27223;SDS011;14965;50.660;13.226;2023-11-19T10:16:41;3.42;;;1.75;;
27223;SDS011;14965;50.660;13.226;2023-11-19T10:19:11;3.97;;;1.80;;
27223;SDS011;14965;50.660;13.226;2023-11-19T10:21:44;3.00;;;1.90;;
27223;SDS011;14965;50.660;13.226;2023-11-19T10:24:11;4.70;;;1.80;;
27223;SDS011;14965;50.660;13.226;2023-11-19T10:26:38;4.60;;;1.98;;
27223;SDS011;14965;50.660;13.226;2023-11-19T10:29:06;6.13;;;3.35;;
27223;SDS011;14965;50.660;13.226;2023-11-19T10:31:32;5.07;;;2.20;;
27223;SDS011;14965;50.660;13.226;2023-11-19T10:33:58;6.18;;;2.55;;
27223;SDS011;14965;50.660;13.226;2023-11-19T10:36:26;5.95;;;2.00;;
27223;SDS011;14965;50.660;13.226;2023-11-19T10:39:03;4.97;;;2.00;;
27223;SDS011;14965;50.660;13.226;2023-11-19T10:41:29;5.18;;;2.05;;
27223;SDS011;14965;50.660;13.226;2023-11-19T10:43:58;6.50;;;2.08;;
27223;SDS011;14965;50.660;13.226;2023-11-19T10:46:36;5.57;;;2.00;;
27223;SDS011;14965;50.660;13.226;2023-11-19T10:49:03;6.87;;;1.90;;
27223;SDS011;14965;50.660;13.226;2023-11-19T10:51:29;11.73;;;2.20;;
27223;SDS011;14965;50.660;13.226;2023-11-19T10:53:58;11.30;;;2.10;;
27223;SDS011;14965;50.660;13.226;2023-11-19T10:56:29;11.13;;;2.20;;
27223;SDS011;14965;50.660;13.226;2023-11-19T10:58:56;8.60;;;2.20;;
27223;SDS011;14965;50.660;13.226;2023-11-19T11:01:27;13.65;;;2.88;;
27223;SDS011;14965;50.660;13.226;2023-11-19T11:04:00;12.93;;;4.18;;
27223;SDS011;14965;50.660;13.226;2023-11-19T11:06:28;15.73;;;5.20;;
27223;SDS011;14965;50.660;13.226;2023-11-19T11:08:55;19.73;;;5.35;;
27223;SDS011;14965;50.660;13.226;2023-11-19T11:11:23;22.10;;;5.68;;
27223;SDS011;14965;50.660;13.226;2023-11-19T11:13:49;19.23;;;4.78;;
27223;SDS011;14965;50.660;13.226;2023-11-19T11:16:19;12.65;;;3.20;;
27223;SDS011;14965;50.660;13.226;2023-11-19T11:18:49;17.67;;;3.33;;
27223;SDS011;14965;50.660;13.226;2023-11-19T11:21:16;11.57;;;2.75;;
27223;SDS011;14965;50.660;13.226;2023-11-19T11:23:55;19.38;;;5.13;;
27223;SDS011;14965;50.660;13.226;2023-11-19T11:26:50;14.57;;;3.22;;
27223;SDS011;14965;50.660;13.226;2023-11-19T11:29:37;16.38;;;4.00;;
27223;SDS011;14965;50.660;13.226;2023-11-19T11:32:21;14.98;;;3.03;;
27223;SDS011;14965;50.660;13.226;2023-11-19T11:35:08;15.85;;;2.67;;
27223;SDS011;14965;50.660;13.226;2023-11-19T11:37:53;11.65;;;4.03;;
27223;SDS011;14965;50.660;13.226;2023-11-19T11:40:27;19.05;;;3.80;;
27223;SDS011;14965;50.660;13.226;2023-11-19T11:42:54;12.63;;;3.30;;
27223;SDS011;14965;50.660;13.226;2023-11-19T11:45:20;19.98;;;4.15;;
27223;SDS011;14965;50.660;13.226;2023-11-19T11:50:49;19.90;;;3.63;;
27223;SDS011;14965;50.660;13.226;2023-11-19T11:53:19;14.00;;;3.22;;
27223;SDS011;14965;50.660;13.226;2023-11-19T11:58:25;15.98;;;3.40;;
27223;SDS011;14965;50.660;13.226;2023-11-19T12:00:56;13.95;;;3.15;;
27223;SDS011;14965;50.660;13.226;2023-11-19T12:03:28;12.88;;;2.78;;
27223;SDS011;14965;50.660;13.226;2023-11-19T12:08:24;15.75;;;2.78;;
27223;SDS011;14965;50.660;13.226;2023-11-19T12:10:53;16.00;;;2.92;;
27223;SDS011;14965;50.660;13.226;2023-11-19T12:13:21;11.60;;;2.92;;
27223;SDS011;14965;50.660;13.226;2023-11-19T12:16:06;17.30;;;2.80;;
27223;SDS011;14965;50.660;13.226;2023-11-19T12:18:34;19.73;;;3.25;;
27223;SDS011;14965;50.660;13.226;2023-11-19T12:21:00;18.38;;;3.25;;
27223;SDS011;14965;50.660;13.226;2023-11-19T12:23:27;13.02;;;3.08;;
27223;SDS011;14965;50.660;13.226;2023-11-19T12:25:55;13.73;;;2.80;;
27223;SDS011;14965;50.660;13.226;2023-11-19T12:28:21;13.65;;;2.83;;
27223;SDS011;14965;50.660;13.226;2023-11-19T12:30:47;14.05;;;2.97;;
27223;SDS011;14965;50.660;13.226;2023-11-19T12:33:13;17.05;;;3.75;;
27223;SDS011;14965;50.660;13.226;2023-11-19T12:35:41;22.70;;;3.88;;
27223;SDS011;14965;50.660;13.226;2023-11-19T12:38:08;16.58;;;3.60;;
27223;SDS011;14965;50.660;13.226;2023-11-19T12:40:44;13.65;;;2.53;;
27223;SDS011;14965;50.660;13.226;2023-11-19T12:43:10;6.78;;;2.08;;
27223;SDS011;14965;50.660;13.226;2023-11-19T12:45:46;13.50;;;2.60;;
27223;SDS011;14965;50.660;13.226;2023-11-19T12:48:13;11.38;;;3.90;;
27223;SDS011;14965;50.660;13.226;2023-11-19T12:53:23;7.93;;;3.08;;
27223;SDS011;14965;50.660;13.226;2023-11-19T12:55:51;8.98;;;2.55;;
27223;SDS011;14965;50.660;13.226;2023-11-19T12:58:27;8.98;;;2.97;;
27223;SDS011;14965;50.660;13.226;2023-11-19T13:00:58;16.27;;;3.60;;
27223;SDS011;14965;50.660;13.226;2023-11-19T13:03:29;13.82;;;3.30;;
27223;SDS011;14965;50.660;13.226;2023-11-19T13:06:02;12.40;;;3.53;;
27223;SDS011;14965;50.660;13.226;2023-11-19T13:08:35;17.65;;;4.40;;
27223;SDS011;14965;50.660;13.226;2023-11-19T13:11:02;15.20;;;4.95;;
27223;SDS011;14965;50.660;13.226;2023-11-19T13:13:29;21.23;;;4.35;;
27223;SDS011;14965;50.660;13.226;2023-11-19T13:16:01;13.25;;;4.35;;
27223;SDS011;14965;50.660;13.226;2023-11-19T13:18:28;18.27;;;5.47;;
27223;SDS011;14965;50.660;13.226;2023-11-19T13:20:53;23.25;;;6.90;;
27223;SDS011;14965;50.660;13.226;2023-11-19T13:23:21;16.10;;;5.05;;
27223;SDS011;14965;50.660;13.226;2023-11-19T13:25:47;32.17;;;16.48;;
27223;SDS011;14965;50.660;13.226;2023-11-19T13:28:13;24.88;;;13.20;;
27223;SDS011;14965;50.660;13.226;2023-11-19T13:30:38;30.35;;;14.55;;
27223;SDS011;14965;50.660;13.226;2023-11-19T13:33:04;26.42;;;13.70;;
27223;SDS011;14965;50.660;13.226;2023-11-19T13:35:30;17.50;;;5.75;;
27223;SDS011;14965;50.660;13.226;2023-11-19T13:37:56;19.17;;;7.05;;
27223;SDS011;14965;50.660;13.226;2023-11-19T13:40:24;20.80;;;9.10;;
27223;SDS011;14965;50.660;13.226;2023-11-19T13:42:50;18.80;;;5.38;;
27223;SDS011;14965;50.660;13.226;2023-11-19T13:45:16;28.52;;;12.80;;
27223;SDS011;14965;50.660;13.226;2023-11-19T13:47:42;23.00;;;9.55;;
27223;SDS011;14965;50.660;13.226;2023-11-19T13:50:10;28.33;;;9.68;;
27223;SDS011;14965;50.660;13.226;2023-11-19T13:55:06;18.48;;;4.78;;
27223;SDS011;14965;50.660;13.226;2023-11-19T13:57:35;18.65;;;4.43;;
27223;SDS011;14965;50.660;13.226;2023-11-19T14:00:01;15.43;;;4.38;;
27223;SDS011;14965;50.660;13.226;2023-11-19T14:02:29;20.00;;;6.20;;
27223;SDS011;14965;50.660;13.226;2023-11-19T14:04:55;23.67;;;6.78;;
27223;SDS011;14965;50.660;13.226;2023-11-19T14:07:21;18.73;;;7.65;;
27223;SDS011;14965;50.660;13.226;2023-11-19T14:09:47;20.70;;;7.75;;
27223;SDS011;14965;50.660;13.226;2023-11-19T14:12:13;19.15;;;4.30;;
27223;SDS011;14965;50.660;13.226;2023-11-19T14:14:40;40.15;;;11.30;;
27223;SDS011;14965;50.660;13.226;2023-11-19T14:17:06;37.17;;;15.90;;
27223;SDS011;14965;50.660;13.226;2023-11-19T14:19:32;21.70;;;6.80;;
27223;SDS011;14965;50.660;13.226;2023-11-19T14:21:58;21.60;;;5.35;;
27223;SDS011;14965;50.660;13.226;2023-11-19T14:24:24;25.17;;;8.23;;
27223;SDS011;14965;50.660;13.226;2023-11-19T14:26:50;20.38;;;7.90;;
27223;SDS011;14965;50.660;13.226;2023-11-19T14:29:16;17.27;;;5.03;;
27223;SDS011;14965;50.660;13.226;2023-11-19T14:31:43;24.05;;;5.25;;
27223;SDS011;14965;50.660;13.226;2023-11-19T14:34:09;25.10;;;10.20;;
27223;SDS011;14965;50.660;13.226;2023-11-19T14:36:35;25.10;;;7.45;;
27223;SDS011;14965;50.660;13.226;2023-11-19T14:39:01;26.70;;;7.50;;
27223;SDS011;14965;50.660;13.226;2023-11-19T14:41:27;27.08;;;9.82;;
27223;SDS011;14965;50.660;13.226;2023-11-19T14:43:53;23.08;;;4.88;;
27223;SDS011;14965;50.660;13.226;2023-11-19T14:46:19;27.40;;;9.27;;